createdAt,value
2023-01-15T00:01:55.488Z,1.10
2023-01-15T00:04:23.607Z,1.30
2023-01-15T00:06:51.861Z,1.17
2023-01-15T00:09:21.314Z,1.30
2023-01-15T00:11:49.459Z,1.30
2023-01-15T00:14:17.607Z,1.20
2023-01-15T00:16:45.704Z,1.40
2023-01-15T00:19:14.603Z,1.30
2023-01-15T00:21:42.801Z,1.40
2023-01-15T00:24:28.765Z,1.40
2023-01-15T00:27:15.551Z,1.30
2023-01-15T00:29:43.716Z,1.20
2023-01-15T00:32:12.978Z,1.23
2023-01-15T00:34:41.146Z,1.50
2023-01-15T00:37:09.286Z,1.40
2023-01-15T00:39:37.493Z,1.00
2023-01-15T00:42:07.028Z,1.17
2023-01-15T00:44:35.194Z,1.00
2023-01-15T00:47:03.291Z,1.33
2023-01-15T00:49:34.587Z,1.57
2023-01-15T00:52:02.676Z,1.40
2023-01-15T00:54:30.901Z,1.10
2023-01-15T00:56:59.376Z,1.13
2023-01-15T00:59:28.977Z,1.20
2023-01-15T01:01:57.688Z,0.93
2023-01-15T01:04:26.876Z,1.13
2023-01-15T01:06:55.111Z,0.90
2023-01-15T01:09:23.316Z,1.00
2023-01-15T01:11:51.578Z,1.27
2023-01-15T01:14:20.056Z,1.20
2023-01-15T01:16:49.660Z,1.20
2023-01-15T01:19:19.805Z,1.07
2023-01-15T01:21:49.244Z,1.20
2023-01-15T01:24:20.804Z,1.00
2023-01-15T01:26:49.755Z,1.20
2023-01-15T01:29:20.682Z,1.10
2023-01-15T01:31:51.360Z,1.20
2023-01-15T01:34:20.174Z,1.47
2023-01-15T01:36:48.448Z,1.20
2023-01-15T01:39:18.271Z,1.13
2023-01-15T01:41:47.668Z,1.30
2023-01-15T01:44:53.975Z,1.20
2023-01-15T01:47:26.640Z,1.67
2023-01-15T01:50:01.764Z,1.60
2023-01-15T01:52:34.350Z,1.90
2023-01-15T01:55:05.139Z,2.47
2023-01-15T01:57:33.870Z,2.67
2023-01-15T02:00:05.065Z,2.70
2023-01-15T02:02:45.266Z,2.97
2023-01-15T02:05:18.956Z,2.60
2023-01-15T02:07:48.221Z,3.30
2023-01-15T02:10:16.886Z,3.50
2023-01-15T02:12:50.633Z,2.90
2023-01-15T02:15:27.273Z,1.63
2023-01-15T02:18:02.335Z,1.00
2023-01-15T02:20:36.144Z,1.00
2023-01-15T02:23:24.404Z,0.90
2023-01-15T02:26:20.004Z,1.47
2023-01-15T02:28:52.585Z,1.10
2023-01-15T02:31:27.787Z,0.90
2023-01-15T02:34:02.073Z,0.80
2023-01-15T02:36:33.966Z,0.93
2023-01-15T02:39:07.404Z,0.67
2023-01-15T02:41:39.360Z,0.80
2023-01-15T02:44:11.671Z,0.80
2023-01-15T02:46:41.696Z,0.80
2023-01-15T02:49:16.263Z,0.73
2023-01-15T02:51:50.238Z,0.80
2023-01-15T02:54:23.830Z,0.90
2023-01-15T02:56:54.037Z,0.60
2023-01-15T02:59:28.390Z,0.60
2023-01-15T03:02:00.104Z,0.70
2023-01-15T03:04:33.607Z,0.70
2023-01-15T03:07:07.845Z,0.60
2023-01-15T03:09:38.398Z,0.53
2023-01-15T03:12:13.289Z,0.50
2023-01-15T03:14:52.424Z,0.50
2023-01-15T03:17:22.640Z,0.50
2023-01-15T03:19:57.444Z,0.43
2023-01-15T03:22:30.033Z,0.50
2023-01-15T03:25:04.232Z,0.60
2023-01-15T03:27:36.313Z,0.50
2023-01-15T03:30:12.203Z,0.40
2023-01-15T03:32:40.765Z,0.50
2023-01-15T03:35:29.953Z,0.50
2023-01-15T03:37:58.507Z,0.50
2023-01-15T03:40:26.707Z,0.50
2023-01-15T03:43:16.274Z,0.50
2023-01-15T03:45:51.807Z,0.40
2023-01-15T03:48:26.170Z,0.60
2023-01-15T03:51:05.065Z,0.50
2023-01-15T03:53:39.508Z,0.50
2023-01-15T03:56:15.810Z,0.47
2023-01-15T03:58:53.141Z,0.40
2023-01-15T04:01:34.154Z,0.50
2023-01-15T04:04:03.694Z,0.40
2023-01-15T04:06:35.458Z,0.50
2023-01-15T04:09:08.220Z,0.43
2023-01-15T04:11:36.700Z,0.50
2023-01-15T04:14:07.716Z,0.50
2023-01-15T04:16:48.884Z,0.50
2023-01-15T04:19:17.086Z,0.63
2023-01-15T04:22:01.310Z,0.40
2023-01-15T04:24:30.177Z,0.40
2023-01-15T04:26:58.349Z,0.50
2023-01-15T04:29:27.093Z,0.50
2023-01-15T04:31:57.887Z,0.50
2023-01-15T04:34:27.202Z,0.50
2023-01-15T04:36:55.368Z,0.50
2023-01-15T04:39:23.929Z,0.50
2023-01-15T04:42:09.603Z,0.50
2023-01-15T04:44:38.615Z,0.53
2023-01-15T04:47:08.245Z,0.50
2023-01-15T04:49:36.988Z,0.50
2023-01-15T04:52:05.371Z,0.50
2023-01-15T04:54:36.208Z,0.50
2023-01-15T04:57:04.614Z,0.50
2023-01-15T04:59:32.857Z,0.40
2023-01-15T05:02:06.571Z,0.60
2023-01-15T05:04:36.822Z,0.40
2023-01-15T05:07:06.395Z,0.40
2023-01-15T05:09:34.852Z,0.50
2023-01-15T05:12:03.313Z,0.50
2023-01-15T05:14:31.539Z,0.50
2023-01-15T05:16:59.692Z,0.50
2023-01-15T05:19:27.839Z,0.50
2023-01-15T05:21:57.402Z,0.60
2023-01-15T05:24:25.490Z,0.80
2023-01-15T05:26:53.746Z,0.70
2023-01-15T05:29:21.903Z,0.90
2023-01-15T05:31:50.001Z,0.80
2023-01-15T05:34:18.104Z,0.70
2023-01-15T05:36:46.220Z,0.70
2023-01-15T05:39:15.725Z,0.60
2023-01-15T05:41:53.208Z,0.60
2023-01-15T05:44:23.826Z,0.70
2023-01-15T05:46:54.727Z,0.60
2023-01-15T05:49:24.821Z,0.50
2023-01-15T05:51:54.371Z,0.60
2023-01-15T05:54:25.922Z,0.60
2023-01-15T05:56:54.547Z,0.57
2023-01-15T05:59:25.348Z,0.77
2023-01-15T06:01:54.354Z,0.60
2023-01-15T06:04:23.132Z,0.60
2023-01-15T06:06:52.718Z,0.60
2023-01-15T06:09:23.020Z,0.50
2023-01-15T06:11:54.072Z,0.70
2023-01-15T06:14:22.365Z,0.60
2023-01-15T06:16:50.593Z,0.70
2023-01-15T06:19:18.823Z,0.60
2023-01-15T06:21:47.129Z,0.70
2023-01-15T06:24:16.725Z,0.60
2023-01-15T06:26:44.901Z,0.60
2023-01-15T06:29:18.538Z,0.60
2023-01-15T06:31:46.742Z,0.53
2023-01-15T06:34:14.964Z,0.60
2023-01-15T06:36:43.069Z,0.70
2023-01-15T06:39:11.678Z,0.70
2023-01-15T06:41:59.759Z,0.90
2023-01-15T06:44:46.723Z,0.80
2023-01-15T06:47:23.029Z,1.03
2023-01-15T06:49:54.199Z,0.97
2023-01-15T06:52:22.402Z,1.00
2023-01-15T06:54:50.542Z,0.60
2023-01-15T06:57:19.858Z,0.97
2023-01-15T06:59:49.808Z,0.77
2023-01-15T07:02:18.573Z,0.60
2023-01-15T07:04:47.819Z,0.70
2023-01-15T07:07:16.292Z,0.70
2023-01-15T07:09:44.608Z,0.70
2023-01-15T07:12:12.806Z,0.83
2023-01-15T07:14:40.971Z,0.70
2023-01-15T07:17:10.471Z,0.90
2023-01-15T07:19:38.807Z,0.80
2023-01-15T07:22:07.264Z,0.90
2023-01-15T07:24:35.742Z,0.80
2023-01-15T07:27:04.000Z,0.90
2023-01-15T07:29:32.131Z,0.70
2023-01-15T07:32:00.349Z,1.20
2023-01-15T07:34:29.936Z,1.40
2023-01-15T07:36:58.110Z,1.00
2023-01-15T07:39:26.256Z,0.93
2023-01-15T07:42:11.819Z,1.00
2023-01-15T07:44:59.978Z,0.90
2023-01-15T07:47:46.284Z,1.10
2023-01-15T07:50:17.739Z,1.20
2023-01-15T07:52:46.455Z,1.00
2023-01-15T07:55:15.291Z,1.00
2023-01-15T07:57:44.049Z,1.00
2023-01-15T08:00:14.914Z,0.80
2023-01-15T08:02:44.353Z,0.73
2023-01-15T08:05:12.929Z,0.70
2023-01-15T08:07:43.326Z,0.70
2023-01-15T08:10:14.058Z,0.70
2023-01-15T08:12:59.963Z,0.97
2023-01-15T08:15:30.403Z,0.60
2023-01-15T08:17:59.195Z,0.60
2023-01-15T08:20:28.210Z,0.90
2023-01-15T08:22:57.733Z,0.70
2023-01-15T08:25:26.899Z,0.70
2023-01-15T08:27:56.513Z,0.80
2023-01-15T08:30:26.276Z,1.00
2023-01-15T08:32:54.436Z,1.00
2023-01-15T08:35:22.550Z,1.00
2023-01-15T08:37:50.886Z,1.20
2023-01-15T08:40:23.255Z,1.60
2023-01-15T08:42:51.400Z,1.57
2023-01-15T08:45:19.564Z,2.10
2023-01-15T08:47:47.655Z,1.67
2023-01-15T08:50:15.860Z,1.70
2023-01-15T08:52:44.129Z,1.70
2023-01-15T08:55:12.265Z,1.70
2023-01-15T08:57:41.723Z,1.30
2023-01-15T09:00:11.210Z,1.40
2023-01-15T09:02:39.298Z,0.97
2023-01-15T09:05:08.132Z,0.80
2023-01-15T09:07:39.071Z,0.80
2023-01-15T09:10:08.397Z,0.80
2023-01-15T09:12:36.650Z,0.80
2023-01-15T09:15:06.975Z,0.70
2023-01-15T09:17:39.603Z,1.03
2023-01-15T09:20:10.215Z,1.20
2023-01-15T09:22:38.578Z,1.27
2023-01-15T09:25:08.002Z,1.40
2023-01-15T09:27:39.103Z,1.40
2023-01-15T09:30:11.822Z,1.67
2023-01-15T09:32:40.815Z,1.73
2023-01-15T09:35:10.037Z,1.77
2023-01-15T09:37:38.184Z,1.60
2023-01-15T09:40:09.216Z,1.30
2023-01-15T09:42:48.962Z,0.90
2023-01-15T09:45:26.314Z,1.10
2023-01-15T09:48:30.740Z,1.30
2023-01-15T09:51:19.697Z,1.13
2023-01-15T09:54:05.445Z,1.17
2023-01-15T09:56:37.594Z,0.90
2023-01-15T09:59:16.461Z,0.63
2023-01-15T10:01:46.561Z,0.80
2023-01-15T10:04:21.312Z,1.03
2023-01-15T10:06:57.047Z,0.80
2023-01-15T10:09:35.054Z,1.00
2023-01-15T10:12:30.516Z,1.10
2023-01-15T10:15:03.540Z,1.00
2023-01-15T10:17:41.515Z,1.10
2023-01-15T10:20:18.513Z,1.20
2023-01-15T10:22:59.588Z,0.80
2023-01-15T10:25:35.183Z,0.90
2023-01-15T10:28:18.258Z,0.87
2023-01-15T10:30:51.661Z,0.67
2023-01-15T10:33:54.683Z,0.80
2023-01-15T10:36:26.128Z,0.70
2023-01-15T10:39:03.011Z,0.70
2023-01-15T10:41:40.513Z,0.80
2023-01-15T10:44:16.124Z,0.50
2023-01-15T10:46:56.068Z,0.60
2023-01-15T11:05:59.991Z,0.70
2023-01-15T11:10:20.052Z,1.20
2023-01-15T11:13:11.023Z,0.60
2023-01-15T11:15:56.981Z,0.90
2023-01-15T11:18:44.147Z,0.70
2023-01-15T11:21:14.022Z,0.80
2023-01-15T11:23:41.973Z,0.70
2023-01-15T11:26:11.965Z,0.77
2023-01-15T11:28:41.544Z,0.70
2023-01-15T11:31:10.139Z,0.90
2023-01-15T11:33:39.026Z,0.83
2023-01-15T11:36:09.044Z,0.90
2023-01-15T11:38:44.591Z,0.87
2023-01-15T11:41:23.720Z,0.73
2023-01-15T11:44:13.413Z,0.83
2023-01-15T11:46:58.630Z,0.60
2023-01-15T11:49:43.682Z,0.77
2023-01-15T11:52:14.301Z,0.83
2023-01-15T11:54:44.776Z,0.60
2023-01-15T11:57:24.790Z,0.70
2023-01-15T11:59:53.164Z,0.70
2023-01-15T12:02:30.709Z,0.60
2023-01-15T12:05:00.507Z,0.70
2023-01-15T12:07:47.785Z,0.63
2023-01-15T12:10:48.746Z,0.50
2023-01-15T12:13:25.463Z,0.70
2023-01-15T12:15:58.724Z,0.70
2023-01-15T12:18:52.633Z,0.70
2023-01-15T12:21:50.078Z,0.70
2023-01-15T12:24:30.459Z,0.73
2023-01-15T12:27:14.046Z,0.70
2023-01-15T12:29:46.703Z,0.60
2023-01-15T12:32:17.991Z,0.70
2023-01-15T12:34:50.427Z,0.60
2023-01-15T12:37:22.669Z,0.90
2023-01-15T12:39:53.646Z,0.80
2023-01-15T12:42:41.633Z,0.80
2023-01-15T12:45:13.860Z,1.10
2023-01-15T12:47:45.301Z,1.00
2023-01-15T12:50:34.200Z,0.83
2023-01-15T12:53:08.245Z,0.80
2023-01-15T12:55:39.592Z,0.70
2023-01-15T12:58:14.779Z,0.70
2023-01-15T13:00:45.232Z,0.80
2023-01-15T13:03:22.375Z,0.90
2023-01-15T13:05:53.097Z,0.83
2023-01-15T13:08:25.169Z,0.80
2023-01-15T13:10:53.306Z,0.80
2023-01-15T13:13:24.617Z,1.20
2023-01-15T13:16:21.284Z,0.70
2023-01-15T13:18:56.552Z,0.90
2023-01-15T13:21:25.993Z,0.70
2023-01-15T13:24:14.101Z,0.83
2023-01-15T13:27:02.656Z,0.70
2023-01-15T13:29:39.304Z,0.70
2023-01-15T13:32:14.125Z,0.70
2023-01-15T13:34:44.737Z,0.87
2023-01-15T13:37:19.603Z,0.90
2023-01-15T13:39:48.376Z,0.93
2023-01-15T13:42:35.150Z,0.70
2023-01-15T13:45:07.968Z,0.80
2023-01-15T13:47:38.965Z,0.70
2023-01-15T13:50:08.628Z,0.90
2023-01-15T13:52:37.531Z,0.80
2023-01-15T13:55:11.878Z,0.90
2023-01-15T13:57:41.455Z,0.70
2023-01-15T14:00:25.650Z,0.80
2023-01-15T14:02:56.056Z,0.80
2023-01-15T14:05:32.476Z,1.00
2023-01-15T14:08:01.440Z,1.00
2023-01-15T14:10:38.649Z,1.10
2023-01-15T14:13:18.673Z,1.10
2023-01-15T14:15:54.264Z,1.20
2023-01-15T14:18:36.999Z,1.20
2023-01-15T14:21:15.799Z,1.13
2023-01-15T14:24:17.669Z,1.07
2023-01-15T14:26:51.788Z,0.97
2023-01-15T14:29:53.453Z,1.00
2023-01-15T14:32:29.519Z,1.20
2023-01-15T14:35:00.677Z,1.03
2023-01-15T14:37:32.450Z,0.80
2023-01-15T14:40:01.497Z,0.90
2023-01-15T14:43:00.997Z,1.20
2023-01-15T14:45:31.151Z,1.23
2023-01-15T14:47:59.886Z,1.40
2023-01-15T14:50:34.818Z,1.23
2023-01-15T14:53:06.626Z,0.80
2023-01-15T14:55:35.179Z,0.90
2023-01-15T14:58:08.234Z,0.93
2023-01-15T15:00:38.980Z,1.00
2023-01-15T15:03:15.876Z,0.90
2023-01-15T15:05:47.045Z,1.03
2023-01-15T15:08:16.060Z,1.00
2023-01-15T15:10:45.460Z,0.90
2023-01-15T15:13:16.324Z,1.20
2023-01-15T15:15:49.668Z,1.30
2023-01-15T15:18:28.511Z,1.40
2023-01-15T15:21:03.830Z,1.00
2023-01-15T15:23:38.797Z,0.80
2023-01-15T15:26:20.225Z,1.00
2023-01-15T15:28:57.241Z,0.90
2023-01-15T15:31:26.527Z,1.17
2023-01-15T15:33:55.082Z,1.00
2023-01-15T15:36:25.554Z,0.90
2023-01-15T15:38:54.696Z,0.87
2023-01-15T15:41:45.446Z,1.10
2023-01-15T15:44:34.526Z,1.00
2023-01-15T15:47:36.583Z,0.80
2023-01-15T15:50:04.817Z,1.10
2023-01-15T15:52:35.576Z,1.07
2023-01-15T15:55:05.969Z,1.20
2023-01-15T15:57:35.087Z,1.20
2023-01-15T16:00:03.700Z,1.20
2023-01-15T16:02:36.414Z,1.07
2023-01-15T16:05:16.956Z,1.20
2023-01-15T16:07:46.679Z,1.30
2023-01-15T16:10:16.184Z,1.10
2023-01-15T16:12:47.159Z,1.07
2023-01-15T16:15:16.803Z,1.30
2023-01-15T16:17:45.072Z,1.10
2023-01-15T16:20:14.901Z,1.17
2023-01-15T16:22:47.240Z,1.00
2023-01-15T16:25:25.931Z,1.47
2023-01-15T16:27:54.031Z,1.20
2023-01-15T16:30:22.581Z,1.40
2023-01-15T16:32:51.630Z,0.90
2023-01-15T16:35:22.552Z,1.53
2023-01-15T16:37:53.150Z,1.60
2023-01-15T16:40:27.647Z,1.40
2023-01-15T16:43:05.461Z,1.53
2023-01-15T16:45:33.549Z,1.27
2023-01-15T16:48:04.419Z,1.30
2023-01-15T16:50:33.762Z,2.00
2023-01-15T16:53:03.972Z,1.50
2023-01-15T16:55:40.316Z,1.57
2023-01-15T16:58:16.963Z,1.40
2023-01-15T17:00:46.252Z,1.23
2023-01-15T17:03:15.253Z,1.50
2023-01-15T17:05:43.447Z,1.57
2023-01-15T17:08:19.149Z,1.50
2023-01-15T17:10:54.334Z,1.53
2023-01-15T17:13:23.278Z,1.33
2023-01-15T17:16:06.533Z,1.70
2023-01-15T17:18:34.535Z,1.60
2023-01-15T17:21:02.553Z,1.70
2023-01-15T17:23:36.509Z,1.50
2023-01-15T17:26:05.548Z,1.50
2023-01-15T17:28:33.365Z,1.97
2023-01-15T17:31:02.763Z,1.43
2023-01-15T17:33:30.761Z,1.43
2023-01-15T17:36:01.271Z,1.73
2023-01-15T17:38:29.303Z,1.73
2023-01-15T17:41:01.685Z,2.00
2023-01-15T17:43:30.320Z,2.13
2023-01-15T17:45:59.984Z,1.87
2023-01-15T17:48:28.169Z,1.87
2023-01-15T17:50:56.158Z,1.80
2023-01-15T17:53:24.219Z,1.70
2023-01-15T17:56:09.509Z,2.00
2023-01-15T17:58:55.962Z,2.20
2023-01-15T18:01:43.302Z,1.73
2023-01-15T18:04:35.409Z,1.77
2023-01-15T18:07:03.676Z,2.00
2023-01-15T18:09:31.615Z,2.17
2023-01-15T18:11:59.719Z,2.20
2023-01-15T18:14:28.947Z,2.07
2023-01-15T18:16:56.872Z,1.90
2023-01-15T18:19:24.842Z,2.20
2023-01-15T18:21:52.714Z,1.77
2023-01-15T18:24:22.186Z,2.40
2023-01-15T18:26:51.850Z,2.43
2023-01-15T18:29:20.023Z,1.40
2023-01-15T18:31:49.545Z,1.23
2023-01-15T18:34:17.708Z,1.50
2023-01-15T18:36:45.718Z,1.60
2023-01-15T18:39:13.864Z,2.50
2023-01-15T18:41:59.664Z,1.50
2023-01-15T18:44:45.093Z,2.00
2023-01-15T18:47:17.382Z,1.70
2023-01-15T18:49:46.681Z,1.20
2023-01-15T18:52:33.873Z,1.97
2023-01-15T18:55:03.085Z,1.40
2023-01-15T18:57:33.392Z,1.40
2023-01-15T19:00:01.306Z,1.50
2023-01-15T19:02:30.534Z,1.70
2023-01-15T19:04:59.819Z,1.30
2023-01-15T19:07:27.792Z,2.20
2023-01-15T19:09:55.876Z,1.63
2023-01-15T19:12:23.710Z,1.30
2023-01-15T19:15:09.084Z,1.50
2023-01-15T19:17:56.202Z,1.50
2023-01-15T19:20:24.089Z,1.50
2023-01-15T19:23:05.007Z,1.87
2023-01-15T19:25:36.736Z,1.50
2023-01-15T19:28:05.263Z,1.60
2023-01-15T19:30:33.813Z,1.53
2023-01-15T19:33:03.013Z,1.53
2023-01-15T19:35:30.940Z,1.70
2023-01-15T19:37:58.929Z,1.47
2023-01-15T19:40:27.245Z,1.50
2023-01-15T19:43:13.549Z,1.73
2023-01-15T19:46:00.683Z,1.40
2023-01-15T19:48:47.235Z,1.70
2023-01-15T19:51:15.123Z,1.40
2023-01-15T19:53:42.958Z,1.50
2023-01-15T19:56:10.885Z,1.20
2023-01-15T19:58:38.798Z,1.07
2023-01-15T20:01:07.105Z,1.43
2023-01-15T20:03:36.496Z,1.50
2023-01-15T20:06:08.431Z,1.40
2023-01-15T20:08:36.415Z,1.60
2023-01-15T20:11:09.411Z,1.40
2023-01-15T20:13:53.300Z,1.43
2023-01-15T20:16:25.364Z,1.60
2023-01-15T20:18:55.610Z,1.70
2023-01-15T20:21:23.487Z,1.43
2023-01-15T20:23:51.592Z,1.80
2023-01-15T20:26:19.702Z,1.40
2023-01-15T20:28:47.805Z,1.37
2023-01-15T20:31:17.554Z,1.40
2023-01-15T20:33:45.501Z,1.30
2023-01-15T20:36:15.056Z,1.40
2023-01-15T20:38:42.987Z,1.30
2023-01-15T20:41:29.697Z,1.33
2023-01-15T20:44:15.273Z,1.53
2023-01-15T20:46:43.171Z,1.40
2023-01-15T20:49:25.168Z,1.70
2023-01-15T20:51:55.346Z,1.40
2023-01-15T20:54:24.923Z,1.67
2023-01-15T20:56:52.971Z,1.50
2023-01-15T20:59:23.843Z,1.43
2023-01-15T21:01:54.735Z,1.43
2023-01-15T21:04:22.841Z,1.33
2023-01-15T21:06:50.698Z,1.43
2023-01-15T21:09:20.291Z,1.30
2023-01-15T21:11:48.879Z,1.10
2023-01-15T21:14:16.751Z,1.60
2023-01-15T21:16:44.653Z,1.10
2023-01-15T21:19:12.718Z,1.20
2023-01-15T21:21:40.671Z,1.20
2023-01-15T21:24:08.840Z,1.30
2023-01-15T21:26:38.046Z,1.37
2023-01-15T21:29:06.022Z,1.40
2023-01-15T21:31:33.982Z,1.10
2023-01-15T21:34:01.904Z,1.53
2023-01-15T21:36:29.867Z,1.33
2023-01-15T21:38:59.074Z,1.10
2023-01-15T21:41:41.499Z,1.80
2023-01-15T21:44:32.534Z,0.97
2023-01-15T21:47:01.562Z,1.60
2023-01-15T21:49:31.714Z,0.90
2023-01-15T21:52:00.028Z,1.17
2023-01-15T21:54:28.124Z,1.50
2023-01-15T21:56:56.358Z,1.40
2023-01-15T21:59:26.003Z,1.10
2023-01-15T22:01:54.863Z,1.33
2023-01-15T22:04:24.350Z,1.40
2023-01-15T22:06:52.923Z,1.10
2023-01-15T22:09:21.378Z,1.63
2023-01-15T22:11:49.848Z,1.57
2023-01-15T22:14:19.497Z,1.30
2023-01-15T22:16:48.864Z,1.23
2023-01-15T22:19:19.869Z,1.63
2023-01-15T22:21:49.348Z,1.30
2023-01-15T22:24:18.836Z,1.30
2023-01-15T22:26:53.614Z,1.20
2023-01-15T22:29:22.125Z,1.40
2023-01-15T22:31:51.603Z,1.43
2023-01-15T22:34:21.317Z,0.90
2023-01-15T22:36:49.569Z,1.10
2023-01-15T22:39:17.871Z,1.10
2023-01-15T22:42:03.689Z,1.33
2023-01-15T22:44:31.723Z,1.07
2023-01-15T22:47:02.351Z,1.30
2023-01-15T22:49:30.394Z,1.20
2023-01-15T22:51:58.237Z,1.57
2023-01-15T22:54:26.119Z,1.40
2023-01-15T22:56:54.025Z,1.50
2023-01-15T22:59:21.939Z,1.40
2023-01-15T23:01:49.879Z,1.10
2023-01-15T23:04:21.508Z,1.20
2023-01-15T23:06:51.034Z,1.33
2023-01-15T23:09:20.165Z,1.13
2023-01-15T23:11:48.104Z,1.37
2023-01-15T23:14:16.554Z,1.00
2023-01-15T23:16:44.473Z,1.03
2023-01-15T23:19:14.216Z,0.97
2023-01-15T23:21:43.697Z,1.40
2023-01-15T23:24:12.621Z,1.30
2023-01-15T23:26:40.669Z,1.00
2023-01-15T23:29:08.624Z,1.60
2023-01-15T23:31:39.440Z,1.13
2023-01-15T23:34:07.295Z,1.13
2023-01-15T23:36:35.206Z,1.17
2023-01-15T23:39:04.445Z,1.40
2023-01-15T23:41:46.183Z,1.10
2023-01-15T23:44:33.057Z,1.20
2023-01-15T23:47:01.021Z,1.30
2023-01-15T23:49:28.998Z,1.33
2023-01-15T23:51:57.164Z,1.47
2023-01-15T23:54:28.748Z,1.13
2023-01-15T23:56:56.819Z,1.20
2023-01-15T23:59:24.840Z,1.23
